sensor_id;sensor_type;location;lat;lon;timestamp;P1;durP1;ratioP1;P2;durP2;ratioP2
59006;SDS011;44792;52.760;6.726;2024-01-11T00:00:34;43.95;;;20.98;;
59006;SDS011;44792;52.760;6.726;2024-01-11T00:03:00;39.88;;;19.58;;
59006;SDS011;44792;52.760;6.726;2024-01-11T00:05:26;38.35;;;21.13;;
59006;SDS011;44792;52.760;6.726;2024-01-11T00:07:51;41.10;;;20.63;;
59006;SDS011;44792;52.760;6.726;2024-01-11T00:10:17;46.63;;;22.40;;
59006;SDS011;44792;52.760;6.726;2024-01-11T00:12:43;40.92;;;19.75;;
59006;SDS011;44792;52.760;6.726;2024-01-11T00:15:09;38.92;;;19.80;;
59006;SDS011;44792;52.760;6.726;2024-01-11T00:17:35;44.78;;;22.95;;
59006;SDS011;44792;52.760;6.726;2024-01-11T00:20:01;44.20;;;21.30;;
59006;SDS011;44792;52.760;6.726;2024-01-11T00:22:27;43.45;;;21.17;;
59006;SDS011;44792;52.760;6.726;2024-01-11T00:24:52;40.35;;;21.88;;
59006;SDS011;44792;52.760;6.726;2024-01-11T00:27:18;39.50;;;20.92;;
59006;SDS011;44792;52.760;6.726;2024-01-11T00:29:44;39.70;;;19.17;;
59006;SDS011;44792;52.760;6.726;2024-01-11T00:32:10;39.65;;;20.17;;
59006;SDS011;44792;52.760;6.726;2024-01-11T00:34:35;40.15;;;20.23;;
59006;SDS011;44792;52.760;6.726;2024-01-11T00:37:01;40.15;;;20.88;;
59006;SDS011;44792;52.760;6.726;2024-01-11T00:39:27;37.65;;;19.65;;
59006;SDS011;44792;52.760;6.726;2024-01-11T00:41:54;37.88;;;20.42;;
59006;SDS011;44792;52.760;6.726;2024-01-11T00:44:20;44.55;;;21.23;;
59006;SDS011;44792;52.760;6.726;2024-01-11T00:46:45;43.83;;;21.02;;
59006;SDS011;44792;52.760;6.726;2024-01-11T00:49:11;43.97;;;23.30;;
59006;SDS011;44792;52.760;6.726;2024-01-11T00:51:37;42.35;;;20.30;;
59006;SDS011;44792;52.760;6.726;2024-01-11T00:54:03;36.67;;;19.65;;
59006;SDS011;44792;52.760;6.726;2024-01-11T00:56:28;41.35;;;20.75;;
59006;SDS011;44792;52.760;6.726;2024-01-11T00:58:54;42.03;;;20.67;;
59006;SDS011;44792;52.760;6.726;2024-01-11T01:01:20;43.60;;;21.90;;
59006;SDS011;44792;52.760;6.726;2024-01-11T01:03:45;44.80;;;22.40;;
59006;SDS011;44792;52.760;6.726;2024-01-11T01:06:11;41.15;;;21.13;;
59006;SDS011;44792;52.760;6.726;2024-01-11T01:08:37;43.30;;;21.65;;
59006;SDS011;44792;52.760;6.726;2024-01-11T01:11:03;48.80;;;22.58;;
59006;SDS011;44792;52.760;6.726;2024-01-11T01:13:28;44.35;;;22.25;;
59006;SDS011;44792;52.760;6.726;2024-01-11T01:15:54;43.42;;;21.27;;
59006;SDS011;44792;52.760;6.726;2024-01-11T01:18:20;43.88;;;21.70;;
59006;SDS011;44792;52.760;6.726;2024-01-11T01:20:46;44.35;;;21.90;;
59006;SDS011;44792;52.760;6.726;2024-01-11T01:23:11;43.78;;;21.60;;
59006;SDS011;44792;52.760;6.726;2024-01-11T01:25:37;41.67;;;21.27;;
59006;SDS011;44792;52.760;6.726;2024-01-11T01:28:03;47.30;;;22.17;;
59006;SDS011;44792;52.760;6.726;2024-01-11T01:30:29;46.90;;;22.17;;
59006;SDS011;44792;52.760;6.726;2024-01-11T01:32:54;41.90;;;22.10;;
59006;SDS011;44792;52.760;6.726;2024-01-11T01:35:21;45.20;;;21.30;;
59006;SDS011;44792;52.760;6.726;2024-01-11T01:37:46;44.67;;;21.23;;
59006;SDS011;44792;52.760;6.726;2024-01-11T01:40:12;47.75;;;22.33;;
59006;SDS011;44792;52.760;6.726;2024-01-11T01:42:44;46.70;;;21.05;;
59006;SDS011;44792;52.760;6.726;2024-01-11T01:45:11;44.97;;;21.20;;
59006;SDS011;44792;52.760;6.726;2024-01-11T01:47:37;45.20;;;21.20;;
59006;SDS011;44792;52.760;6.726;2024-01-11T01:50:05;49.72;;;22.65;;
59006;SDS011;44792;52.760;6.726;2024-01-11T01:52:32;41.17;;;21.13;;
59006;SDS011;44792;52.760;6.726;2024-01-11T01:54:59;41.35;;;18.75;;
59006;SDS011;44792;52.760;6.726;2024-01-11T01:57:27;47.75;;;21.65;;
59006;SDS011;44792;52.760;6.726;2024-01-11T01:59:55;45.05;;;21.45;;
59006;SDS011;44792;52.760;6.726;2024-01-11T02:02:21;40.40;;;20.50;;
59006;SDS011;44792;52.760;6.726;2024-01-11T02:04:47;45.92;;;22.65;;
59006;SDS011;44792;52.760;6.726;2024-01-11T02:07:13;46.35;;;20.92;;
59006;SDS011;44792;52.760;6.726;2024-01-11T02:09:40;44.97;;;21.58;;
59006;SDS011;44792;52.760;6.726;2024-01-11T02:12:07;45.85;;;21.88;;
59006;SDS011;44792;52.760;6.726;2024-01-11T02:14:37;43.83;;;21.38;;
59006;SDS011;44792;52.760;6.726;2024-01-11T02:17:03;49.97;;;21.17;;
59006;SDS011;44792;52.760;6.726;2024-01-11T02:19:28;43.83;;;21.35;;
59006;SDS011;44792;52.760;6.726;2024-01-11T02:21:54;48.25;;;22.02;;
59006;SDS011;44792;52.760;6.726;2024-01-11T02:24:22;44.25;;;21.25;;
59006;SDS011;44792;52.760;6.726;2024-01-11T02:27:00;43.63;;;21.70;;
59006;SDS011;44792;52.760;6.726;2024-01-11T02:29:28;47.33;;;22.10;;
59006;SDS011;44792;52.760;6.726;2024-01-11T02:31:54;42.88;;;21.13;;
59006;SDS011;44792;52.760;6.726;2024-01-11T02:34:21;44.38;;;20.77;;
59006;SDS011;44792;52.760;6.726;2024-01-11T02:36:49;47.55;;;20.75;;
59006;SDS011;44792;52.760;6.726;2024-01-11T02:39:16;43.60;;;21.15;;
59006;SDS011;44792;52.760;6.726;2024-01-11T02:41:44;43.58;;;20.48;;
59006;SDS011;44792;52.760;6.726;2024-01-11T02:44:10;43.17;;;21.85;;
59006;SDS011;44792;52.760;6.726;2024-01-11T02:46:35;44.95;;;19.73;;
59006;SDS011;44792;52.760;6.726;2024-01-11T02:49:01;44.50;;;21.05;;
59006;SDS011;44792;52.760;6.726;2024-01-11T02:51:27;45.65;;;22.38;;
59006;SDS011;44792;52.760;6.726;2024-01-11T02:53:53;47.00;;;21.38;;
59006;SDS011;44792;52.760;6.726;2024-01-11T02:56:19;45.33;;;20.10;;
59006;SDS011;44792;52.760;6.726;2024-01-11T02:58:44;47.03;;;21.40;;
59006;SDS011;44792;52.760;6.726;2024-01-11T03:01:10;46.60;;;20.98;;
59006;SDS011;44792;52.760;6.726;2024-01-11T03:03:36;47.35;;;22.10;;
59006;SDS011;44792;52.760;6.726;2024-01-11T03:06:01;43.42;;;20.60;;
59006;SDS011;44792;52.760;6.726;2024-01-11T03:08:28;45.80;;;21.17;;
59006;SDS011;44792;52.760;6.726;2024-01-11T03:10:54;47.28;;;21.60;;
59006;SDS011;44792;52.760;6.726;2024-01-11T03:13:20;45.40;;;21.13;;
59006;SDS011;44792;52.760;6.726;2024-01-11T03:15:46;50.28;;;23.75;;
59006;SDS011;44792;52.760;6.726;2024-01-11T03:18:12;48.78;;;21.23;;
59006;SDS011;44792;52.760;6.726;2024-01-11T03:20:37;44.08;;;22.15;;
59006;SDS011;44792;52.760;6.726;2024-01-11T03:23:03;54.22;;;22.70;;
59006;SDS011;44792;52.760;6.726;2024-01-11T03:25:29;46.15;;;21.05;;
59006;SDS011;44792;52.760;6.726;2024-01-11T03:27:55;47.88;;;21.40;;
59006;SDS011;44792;52.760;6.726;2024-01-11T03:30:20;44.72;;;21.60;;
59006;SDS011;44792;52.760;6.726;2024-01-11T03:32:46;43.55;;;20.88;;
59006;SDS011;44792;52.760;6.726;2024-01-11T03:35:12;46.08;;;21.67;;
59006;SDS011;44792;52.760;6.726;2024-01-11T03:37:38;43.13;;;21.00;;
59006;SDS011;44792;52.760;6.726;2024-01-11T03:40:04;48.17;;;21.33;;
59006;SDS011;44792;52.760;6.726;2024-01-11T03:42:30;44.50;;;21.33;;
59006;SDS011;44792;52.760;6.726;2024-01-11T03:44:56;46.63;;;21.63;;
59006;SDS011;44792;52.760;6.726;2024-01-11T03:47:22;43.05;;;21.30;;
59006;SDS011;44792;52.760;6.726;2024-01-11T03:49:47;46.58;;;21.05;;
59006;SDS011;44792;52.760;6.726;2024-01-11T03:52:13;41.30;;;20.42;;
59006;SDS011;44792;52.760;6.726;2024-01-11T03:54:39;53.05;;;22.52;;
59006;SDS011;44792;52.760;6.726;2024-01-11T03:57:05;44.53;;;21.10;;
59006;SDS011;44792;52.760;6.726;2024-01-11T03:59:31;53.20;;;23.83;;
59006;SDS011;44792;52.760;6.726;2024-01-11T04:01:57;51.65;;;23.33;;
59006;SDS011;44792;52.760;6.726;2024-01-11T04:04:24;49.80;;;22.05;;
59006;SDS011;44792;52.760;6.726;2024-01-11T04:06:51;50.90;;;22.90;;
59006;SDS011;44792;52.760;6.726;2024-01-11T04:09:17;48.47;;;22.95;;
59006;SDS011;44792;52.760;6.726;2024-01-11T04:11:43;50.00;;;22.60;;
59006;SDS011;44792;52.760;6.726;2024-01-11T04:14:08;50.22;;;21.77;;
59006;SDS011;44792;52.760;6.726;2024-01-11T04:16:39;52.50;;;23.38;;
59006;SDS011;44792;52.760;6.726;2024-01-11T04:19:06;45.50;;;21.07;;
59006;SDS011;44792;52.760;6.726;2024-01-11T04:21:31;54.40;;;23.27;;
59006;SDS011;44792;52.760;6.726;2024-01-11T04:23:57;48.30;;;23.67;;
59006;SDS011;44792;52.760;6.726;2024-01-11T04:26:23;50.72;;;22.40;;
59006;SDS011;44792;52.760;6.726;2024-01-11T04:28:49;48.67;;;21.70;;
59006;SDS011;44792;52.760;6.726;2024-01-11T04:31:16;48.67;;;22.42;;
59006;SDS011;44792;52.760;6.726;2024-01-11T04:33:42;47.67;;;21.98;;
59006;SDS011;44792;52.760;6.726;2024-01-11T04:36:09;47.65;;;21.88;;
59006;SDS011;44792;52.760;6.726;2024-01-11T04:38:35;50.78;;;22.05;;
59006;SDS011;44792;52.760;6.726;2024-01-11T04:41:01;46.85;;;21.23;;
59006;SDS011;44792;52.760;6.726;2024-01-11T04:43:27;48.30;;;22.48;;
59006;SDS011;44792;52.760;6.726;2024-01-11T04:45:52;46.08;;;21.00;;
59006;SDS011;44792;52.760;6.726;2024-01-11T04:48:18;49.30;;;21.08;;
59006;SDS011;44792;52.760;6.726;2024-01-11T04:50:44;46.33;;;21.95;;
59006;SDS011;44792;52.760;6.726;2024-01-11T04:53:10;47.00;;;21.52;;
59006;SDS011;44792;52.760;6.726;2024-01-11T04:55:36;55.25;;;22.67;;
59006;SDS011;44792;52.760;6.726;2024-01-11T04:58:02;47.17;;;21.50;;
59006;SDS011;44792;52.760;6.726;2024-01-11T05:00:28;49.08;;;21.10;;
59006;SDS011;44792;52.760;6.726;2024-01-11T05:02:54;43.83;;;20.60;;
59006;SDS011;44792;52.760;6.726;2024-01-11T05:05:20;46.45;;;22.30;;
59006;SDS011;44792;52.760;6.726;2024-01-11T05:07:45;47.03;;;22.13;;
59006;SDS011;44792;52.760;6.726;2024-01-11T05:10:11;50.63;;;22.15;;
59006;SDS011;44792;52.760;6.726;2024-01-11T05:12:37;49.67;;;22.02;;
59006;SDS011;44792;52.760;6.726;2024-01-11T05:15:03;52.38;;;23.30;;
59006;SDS011;44792;52.760;6.726;2024-01-11T05:17:31;53.38;;;23.27;;
59006;SDS011;44792;52.760;6.726;2024-01-11T05:19:57;53.22;;;23.33;;
59006;SDS011;44792;52.760;6.726;2024-01-11T05:22:22;53.65;;;23.98;;
59006;SDS011;44792;52.760;6.726;2024-01-11T05:24:48;55.83;;;23.23;;
59006;SDS011;44792;52.760;6.726;2024-01-11T05:27:14;50.47;;;23.40;;
59006;SDS011;44792;52.760;6.726;2024-01-11T05:29:39;49.58;;;22.60;;
59006;SDS011;44792;52.760;6.726;2024-01-11T05:32:05;55.45;;;24.80;;
59006;SDS011;44792;52.760;6.726;2024-01-11T05:34:31;55.22;;;23.33;;
59006;SDS011;44792;52.760;6.726;2024-01-11T05:36:56;54.22;;;25.45;;
59006;SDS011;44792;52.760;6.726;2024-01-11T05:39:22;53.00;;;23.80;;
59006;SDS011;44792;52.760;6.726;2024-01-11T05:41:48;61.40;;;24.90;;
59006;SDS011;44792;52.760;6.726;2024-01-11T05:44:13;52.33;;;23.10;;
59006;SDS011;44792;52.760;6.726;2024-01-11T05:46:39;61.38;;;26.10;;
59006;SDS011;44792;52.760;6.726;2024-01-11T05:49:05;50.17;;;22.60;;
59006;SDS011;44792;52.760;6.726;2024-01-11T05:51:31;54.30;;;24.17;;
59006;SDS011;44792;52.760;6.726;2024-01-11T05:53:56;59.47;;;23.80;;
59006;SDS011;44792;52.760;6.726;2024-01-11T05:56:22;50.53;;;22.88;;
59006;SDS011;44792;52.760;6.726;2024-01-11T05:58:48;56.00;;;23.65;;
59006;SDS011;44792;52.760;6.726;2024-01-11T06:01:13;54.10;;;24.00;;
59006;SDS011;44792;52.760;6.726;2024-01-11T06:03:39;49.70;;;22.20;;
59006;SDS011;44792;52.760;6.726;2024-01-11T06:06:05;52.53;;;24.48;;
59006;SDS011;44792;52.760;6.726;2024-01-11T06:08:31;50.92;;;23.20;;
59006;SDS011;44792;52.760;6.726;2024-01-11T06:10:58;53.17;;;24.20;;
59006;SDS011;44792;52.760;6.726;2024-01-11T06:13:24;51.38;;;23.35;;
59006;SDS011;44792;52.760;6.726;2024-01-11T06:15:49;51.55;;;22.77;;
59006;SDS011;44792;52.760;6.726;2024-01-11T06:18:15;53.05;;;22.77;;
59006;SDS011;44792;52.760;6.726;2024-01-11T06:20:41;58.55;;;25.13;;
59006;SDS011;44792;52.760;6.726;2024-01-11T06:23:07;49.25;;;22.25;;
59006;SDS011;44792;52.760;6.726;2024-01-11T06:25:32;59.53;;;24.40;;
59006;SDS011;44792;52.760;6.726;2024-01-11T06:27:59;52.00;;;24.33;;
59006;SDS011;44792;52.760;6.726;2024-01-11T06:30:25;50.60;;;23.38;;
59006;SDS011;44792;52.760;6.726;2024-01-11T06:32:50;54.47;;;23.98;;
59006;SDS011;44792;52.760;6.726;2024-01-11T06:35:16;51.70;;;24.40;;
59006;SDS011;44792;52.760;6.726;2024-01-11T06:37:42;51.88;;;22.98;;
59006;SDS011;44792;52.760;6.726;2024-01-11T06:40:08;54.83;;;23.90;;
59006;SDS011;44792;52.760;6.726;2024-01-11T06:42:34;49.38;;;22.42;;
59006;SDS011;44792;52.760;6.726;2024-01-11T06:45:00;53.78;;;25.08;;
59006;SDS011;44792;52.760;6.726;2024-01-11T06:47:26;51.90;;;22.30;;
59006;SDS011;44792;52.760;6.726;2024-01-11T06:49:52;56.13;;;25.45;;
59006;SDS011;44792;52.760;6.726;2024-01-11T06:52:18;50.30;;;22.00;;
59006;SDS011;44792;52.760;6.726;2024-01-11T06:54:44;52.80;;;24.17;;
59006;SDS011;44792;52.760;6.726;2024-01-11T06:57:10;50.90;;;23.33;;
59006;SDS011;44792;52.760;6.726;2024-01-11T06:59:36;55.35;;;25.60;;
59006;SDS011;44792;52.760;6.726;2024-01-11T07:02:02;51.83;;;24.55;;
59006;SDS011;44792;52.760;6.726;2024-01-11T07:04:29;55.83;;;23.40;;
59006;SDS011;44792;52.760;6.726;2024-01-11T07:06:54;57.55;;;25.92;;
59006;SDS011;44792;52.760;6.726;2024-01-11T07:09:20;53.05;;;24.95;;
59006;SDS011;44792;52.760;6.726;2024-01-11T07:11:46;50.90;;;23.65;;
59006;SDS011;44792;52.760;6.726;2024-01-11T07:14:11;52.17;;;24.50;;
59006;SDS011;44792;52.760;6.726;2024-01-11T07:16:37;58.72;;;27.88;;
59006;SDS011;44792;52.760;6.726;2024-01-11T07:19:03;48.35;;;24.60;;
59006;SDS011;44792;52.760;6.726;2024-01-11T07:21:28;57.95;;;27.95;;
59006;SDS011;44792;52.760;6.726;2024-01-11T07:23:58;57.65;;;26.85;;
59006;SDS011;44792;52.760;6.726;2024-01-11T07:26:24;53.80;;;24.48;;
59006;SDS011;44792;52.760;6.726;2024-01-11T07:28:50;52.90;;;24.83;;
59006;SDS011;44792;52.760;6.726;2024-01-11T07:31:16;51.35;;;23.55;;
59006;SDS011;44792;52.760;6.726;2024-01-11T07:33:42;52.65;;;24.90;;
59006;SDS011;44792;52.760;6.726;2024-01-11T07:36:08;46.28;;;22.52;;
59006;SDS011;44792;52.760;6.726;2024-01-11T07:38:34;51.28;;;25.40;;
59006;SDS011;44792;52.760;6.726;2024-01-11T07:41:00;49.65;;;22.17;;
59006;SDS011;44792;52.760;6.726;2024-01-11T07:43:26;53.60;;;24.63;;
59006;SDS011;44792;52.760;6.726;2024-01-11T07:45:54;52.40;;;23.08;;
59006;SDS011;44792;52.760;6.726;2024-01-11T07:48:22;54.28;;;24.05;;
59006;SDS011;44792;52.760;6.726;2024-01-11T07:50:49;61.75;;;25.48;;
59006;SDS011;44792;52.760;6.726;2024-01-11T07:53:15;51.15;;;23.35;;
59006;SDS011;44792;52.760;6.726;2024-01-11T07:55:41;56.05;;;25.20;;
59006;SDS011;44792;52.760;6.726;2024-01-11T07:58:07;51.75;;;23.50;;
59006;SDS011;44792;52.760;6.726;2024-01-11T08:00:33;50.72;;;24.20;;
59006;SDS011;44792;52.760;6.726;2024-01-11T08:02:59;53.75;;;24.20;;
59006;SDS011;44792;52.760;6.726;2024-01-11T08:05:25;51.70;;;24.80;;
59006;SDS011;44792;52.760;6.726;2024-01-11T08:07:51;50.00;;;24.38;;
59006;SDS011;44792;52.760;6.726;2024-01-11T08:10:17;58.03;;;25.23;;
59006;SDS011;44792;52.760;6.726;2024-01-11T08:12:42;53.35;;;23.63;;
59006;SDS011;44792;52.760;6.726;2024-01-11T08:15:08;51.83;;;24.60;;
59006;SDS011;44792;52.760;6.726;2024-01-11T08:17:38;50.47;;;23.08;;
59006;SDS011;44792;52.760;6.726;2024-01-11T08:20:04;53.83;;;24.60;;
59006;SDS011;44792;52.760;6.726;2024-01-11T08:22:33;52.08;;;22.60;;
59006;SDS011;44792;52.760;6.726;2024-01-11T08:25:01;49.60;;;23.00;;
59006;SDS011;44792;52.760;6.726;2024-01-11T08:27:29;48.10;;;24.55;;
59006;SDS011;44792;52.760;6.726;2024-01-11T08:29:58;53.47;;;24.75;;
59006;SDS011;44792;52.760;6.726;2024-01-11T08:32:25;48.83;;;22.20;;
59006;SDS011;44792;52.760;6.726;2024-01-11T08:34:51;54.22;;;26.33;;
59006;SDS011;44792;52.760;6.726;2024-01-11T08:37:17;62.60;;;26.95;;
59006;SDS011;44792;52.760;6.726;2024-01-11T08:39:43;61.17;;;27.80;;
59006;SDS011;44792;52.760;6.726;2024-01-11T08:42:11;62.00;;;28.55;;
59006;SDS011;44792;52.760;6.726;2024-01-11T08:44:40;64.20;;;29.42;;
59006;SDS011;44792;52.760;6.726;2024-01-11T08:47:09;63.10;;;31.92;;
59006;SDS011;44792;52.760;6.726;2024-01-11T08:49:38;62.42;;;30.58;;
59006;SDS011;44792;52.760;6.726;2024-01-11T08:52:05;60.40;;;29.20;;
59006;SDS011;44792;52.760;6.726;2024-01-11T08:54:31;66.97;;;31.65;;
59006;SDS011;44792;52.760;6.726;2024-01-11T08:57:00;63.53;;;29.88;;
59006;SDS011;44792;52.760;6.726;2024-01-11T08:59:26;60.25;;;29.42;;
59006;SDS011;44792;52.760;6.726;2024-01-11T09:01:52;66.63;;;30.90;;
59006;SDS011;44792;52.760;6.726;2024-01-11T09:04:18;62.70;;;30.02;;
59006;SDS011;44792;52.760;6.726;2024-01-11T09:06:44;53.17;;;27.52;;
59006;SDS011;44792;52.760;6.726;2024-01-11T09:09:10;56.22;;;27.73;;
59006;SDS011;44792;52.760;6.726;2024-01-11T09:11:38;55.10;;;25.27;;
59006;SDS011;44792;52.760;6.726;2024-01-11T09:14:08;60.85;;;26.05;;
59006;SDS011;44792;52.760;6.726;2024-01-11T09:19:04;55.47;;;24.63;;
59006;SDS011;44792;52.760;6.726;2024-01-11T09:21:30;49.53;;;23.25;;
59006;SDS011;44792;52.760;6.726;2024-01-11T09:23:56;48.58;;;23.42;;
59006;SDS011;44792;52.760;6.726;2024-01-11T09:26:22;53.28;;;24.90;;
59006;SDS011;44792;52.760;6.726;2024-01-11T09:28:48;55.28;;;24.58;;
59006;SDS011;44792;52.760;6.726;2024-01-11T09:31:13;59.45;;;27.10;;
59006;SDS011;44792;52.760;6.726;2024-01-11T09:33:39;57.38;;;25.70;;
59006;SDS011;44792;52.760;6.726;2024-01-11T09:36:05;54.03;;;25.65;;
59006;SDS011;44792;52.760;6.726;2024-01-11T09:38:33;57.90;;;25.27;;
59006;SDS011;44792;52.760;6.726;2024-01-11T09:41:09;58.20;;;25.40;;
59006;SDS011;44792;52.760;6.726;2024-01-11T09:43:37;56.35;;;25.65;;
59006;SDS011;44792;52.760;6.726;2024-01-11T09:46:05;65.70;;;28.45;;
59006;SDS011;44792;52.760;6.726;2024-01-11T09:48:35;59.03;;;28.20;;
59006;SDS011;44792;52.760;6.726;2024-01-11T09:51:02;49.80;;;23.50;;
59006;SDS011;44792;52.760;6.726;2024-01-11T09:53:32;51.97;;;23.95;;
59006;SDS011;44792;52.760;6.726;2024-01-11T09:55:59;63.65;;;28.25;;
59006;SDS011;44792;52.760;6.726;2024-01-11T09:58:25;57.03;;;29.48;;
59006;SDS011;44792;52.760;6.726;2024-01-11T10:00:54;49.88;;;24.50;;
59006;SDS011;44792;52.760;6.726;2024-01-11T10:03:24;55.00;;;24.45;;
59006;SDS011;44792;52.760;6.726;2024-01-11T10:05:51;56.25;;;25.42;;
59006;SDS011;44792;52.760;6.726;2024-01-11T10:08:23;49.67;;;21.67;;
59006;SDS011;44792;52.760;6.726;2024-01-11T10:10:50;54.47;;;24.58;;
59006;SDS011;44792;52.760;6.726;2024-01-11T10:13:16;54.33;;;24.77;;
59006;SDS011;44792;52.760;6.726;2024-01-11T10:15:45;57.22;;;25.00;;
59006;SDS011;44792;52.760;6.726;2024-01-11T10:18:11;56.55;;;24.45;;
59006;SDS011;44792;52.760;6.726;2024-01-11T10:20:37;50.28;;;23.98;;
59006;SDS011;44792;52.760;6.726;2024-01-11T10:23:03;54.67;;;25.67;;
59006;SDS011;44792;52.760;6.726;2024-01-11T10:25:29;45.80;;;22.33;;
59006;SDS011;44792;52.760;6.726;2024-01-11T10:27:55;50.25;;;24.52;;
59006;SDS011;44792;52.760;6.726;2024-01-11T10:30:20;53.05;;;22.95;;
59006;SDS011;44792;52.760;6.726;2024-01-11T10:32:48;48.13;;;23.23;;
59006;SDS011;44792;52.760;6.726;2024-01-11T10:35:14;53.55;;;24.05;;
59006;SDS011;44792;52.760;6.726;2024-01-11T10:37:43;51.95;;;23.73;;
59006;SDS011;44792;52.760;6.726;2024-01-11T10:40:09;51.10;;;21.70;;
59006;SDS011;44792;52.760;6.726;2024-01-11T10:42:51;49.17;;;23.15;;
59006;SDS011;44792;52.760;6.726;2024-01-11T10:45:18;48.60;;;22.45;;
59006;SDS011;44792;52.760;6.726;2024-01-11T10:48:03;51.10;;;24.00;;
59006;SDS011;44792;52.760;6.726;2024-01-11T10:50:36;56.22;;;24.20;;
59006;SDS011;44792;52.760;6.726;2024-01-11T10:55:36;50.10;;;23.40;;
59006;SDS011;44792;52.760;6.726;2024-01-11T10:58:03;45.33;;;21.88;;
59006;SDS011;44792;52.760;6.726;2024-01-11T11:00:29;46.80;;;21.73;;
59006;SDS011;44792;52.760;6.726;2024-01-11T11:02:56;45.40;;;21.15;;
59006;SDS011;44792;52.760;6.726;2024-01-11T11:05:25;51.30;;;22.20;;
59006;SDS011;44792;52.760;6.726;2024-01-11T11:07:54;52.83;;;23.73;;
59006;SDS011;44792;52.760;6.726;2024-01-11T11:10:21;47.97;;;22.77;;
59006;SDS011;44792;52.760;6.726;2024-01-11T11:12:48;47.85;;;22.42;;
59006;SDS011;44792;52.760;6.726;2024-01-11T11:15:14;50.83;;;23.88;;
59006;SDS011;44792;52.760;6.726;2024-01-11T11:17:40;50.35;;;22.52;;
59006;SDS011;44792;52.760;6.726;2024-01-11T11:20:09;47.25;;;23.73;;
59006;SDS011;44792;52.760;6.726;2024-01-11T11:22:42;52.30;;;23.98;;
59006;SDS011;44792;52.760;6.726;2024-01-11T11:25:11;48.60;;;21.73;;
59006;SDS011;44792;52.760;6.726;2024-01-11T11:27:49;51.83;;;23.92;;
59006;SDS011;44792;52.760;6.726;2024-01-11T11:30:18;51.85;;;22.98;;
59006;SDS011;44792;52.760;6.726;2024-01-11T11:32:45;44.85;;;21.02;;
59006;SDS011;44792;52.760;6.726;2024-01-11T11:35:11;47.50;;;23.10;;
59006;SDS011;44792;52.760;6.726;2024-01-11T11:37:37;54.33;;;23.40;;
59006;SDS011;44792;52.760;6.726;2024-01-11T11:40:06;47.25;;;20.98;;
59006;SDS011;44792;52.760;6.726;2024-01-11T11:42:35;48.78;;;22.27;;
59006;SDS011;44792;52.760;6.726;2024-01-11T11:45:01;49.33;;;21.30;;
59006;SDS011;44792;52.760;6.726;2024-01-11T11:47:46;50.58;;;22.23;;
59006;SDS011;44792;52.760;6.726;2024-01-11T11:50:12;45.28;;;21.05;;
59006;SDS011;44792;52.760;6.726;2024-01-11T11:52:39;42.42;;;21.73;;
59006;SDS011;44792;52.760;6.726;2024-01-11T11:55:07;46.95;;;22.15;;
59006;SDS011;44792;52.760;6.726;2024-01-11T11:57:34;50.17;;;23.00;;
59006;SDS011;44792;52.760;6.726;2024-01-11T12:00:00;49.28;;;21.05;;
59006;SDS011;44792;52.760;6.726;2024-01-11T12:02:30;46.95;;;20.23;;
59006;SDS011;44792;52.760;6.726;2024-01-11T12:04:57;53.83;;;22.98;;
59006;SDS011;44792;52.760;6.726;2024-01-11T12:07:22;49.03;;;22.90;;
59006;SDS011;44792;52.760;6.726;2024-01-11T12:09:48;45.08;;;21.40;;
59006;SDS011;44792;52.760;6.726;2024-01-11T12:12:16;45.03;;;21.35;;
59006;SDS011;44792;52.760;6.726;2024-01-11T12:14:43;45.20;;;22.00;;
59006;SDS011;44792;52.760;6.726;2024-01-11T12:17:08;44.83;;;20.73;;
59006;SDS011;44792;52.760;6.726;2024-01-11T12:19:34;44.20;;;21.17;;
59006;SDS011;44792;52.760;6.726;2024-01-11T12:22:00;40.40;;;20.83;;
59006;SDS011;44792;52.760;6.726;2024-01-11T12:24:27;42.83;;;19.60;;
59006;SDS011;44792;52.760;6.726;2024-01-11T12:26:52;39.35;;;19.63;;
59006;SDS011;44792;52.760;6.726;2024-01-11T12:29:19;43.13;;;19.30;;
59006;SDS011;44792;52.760;6.726;2024-01-11T12:31:47;44.47;;;20.08;;
59006;SDS011;44792;52.760;6.726;2024-01-11T12:34:13;42.78;;;20.33;;
59006;SDS011;44792;52.760;6.726;2024-01-11T12:36:40;42.65;;;20.05;;
59006;SDS011;44792;52.760;6.726;2024-01-11T12:39:06;34.45;;;17.02;;
59006;SDS011;44792;52.760;6.726;2024-01-11T12:41:33;42.30;;;19.10;;
59006;SDS011;44792;52.760;6.726;2024-01-11T12:44:00;39.03;;;18.38;;
59006;SDS011;44792;52.760;6.726;2024-01-11T12:46:26;41.90;;;20.50;;
59006;SDS011;44792;52.760;6.726;2024-01-11T12:48:52;41.92;;;19.30;;
59006;SDS011;44792;52.760;6.726;2024-01-11T12:51:18;42.97;;;19.55;;
59006;SDS011;44792;52.760;6.726;2024-01-11T12:53:48;38.83;;;19.48;;
59006;SDS011;44792;52.760;6.726;2024-01-11T12:56:14;39.45;;;18.85;;
59006;SDS011;44792;52.760;6.726;2024-01-11T12:58:41;39.33;;;18.88;;
59006;SDS011;44792;52.760;6.726;2024-01-11T13:01:07;40.58;;;19.27;;
59006;SDS011;44792;52.760;6.726;2024-01-11T13:03:37;45.08;;;20.08;;
59006;SDS011;44792;52.760;6.726;2024-01-11T13:06:04;42.40;;;18.60;;
59006;SDS011;44792;52.760;6.726;2024-01-11T13:08:31;44.63;;;19.30;;
59006;SDS011;44792;52.760;6.726;2024-01-11T13:10:57;47.05;;;21.27;;
59006;SDS011;44792;52.760;6.726;2024-01-11T13:13:23;44.85;;;20.52;;
59006;SDS011;44792;52.760;6.726;2024-01-11T13:15:48;43.40;;;20.55;;
59006;SDS011;44792;52.760;6.726;2024-01-11T13:18:15;46.35;;;21.30;;
59006;SDS011;44792;52.760;6.726;2024-01-11T13:20:41;46.20;;;20.27;;
59006;SDS011;44792;52.760;6.726;2024-01-11T13:23:17;41.80;;;18.38;;
59006;SDS011;44792;52.760;6.726;2024-01-11T13:25:45;47.75;;;19.73;;
59006;SDS011;44792;52.760;6.726;2024-01-11T13:28:12;41.15;;;20.40;;
59006;SDS011;44792;52.760;6.726;2024-01-11T13:30:38;47.88;;;20.23;;
59006;SDS011;44792;52.760;6.726;2024-01-11T13:33:05;45.13;;;20.25;;
59006;SDS011;44792;52.760;6.726;2024-01-11T13:35:33;45.10;;;19.15;;
59006;SDS011;44792;52.760;6.726;2024-01-11T13:38:03;47.55;;;19.65;;
59006;SDS011;44792;52.760;6.726;2024-01-11T13:40:29;39.63;;;18.88;;
59006;SDS011;44792;52.760;6.726;2024-01-11T13:42:55;44.55;;;19.98;;
59006;SDS011;44792;52.760;6.726;2024-01-11T13:45:21;39.35;;;17.95;;
59006;SDS011;44792;52.760;6.726;2024-01-11T13:47:48;45.78;;;19.88;;
59006;SDS011;44792;52.760;6.726;2024-01-11T13:50:13;41.10;;;19.27;;
59006;SDS011;44792;52.760;6.726;2024-01-11T13:52:40;41.75;;;19.05;;
59006;SDS011;44792;52.760;6.726;2024-01-11T13:55:06;46.58;;;19.13;;
59006;SDS011;44792;52.760;6.726;2024-01-11T13:57:35;43.40;;;20.35;;
59006;SDS011;44792;52.760;6.726;2024-01-11T14:00:02;49.92;;;21.08;;
59006;SDS011;44792;52.760;6.726;2024-01-11T14:02:28;42.00;;;19.10;;
59006;SDS011;44792;52.760;6.726;2024-01-11T14:04:54;47.25;;;20.98;;
59006;SDS011;44792;52.760;6.726;2024-01-11T14:07:20;42.20;;;19.55;;
59006;SDS011;44792;52.760;6.726;2024-01-11T14:09:45;44.33;;;19.17;;
59006;SDS011;44792;52.760;6.726;2024-01-11T14:12:11;41.92;;;19.15;;
59006;SDS011;44792;52.760;6.726;2024-01-11T14:14:37;45.75;;;19.00;;
59006;SDS011;44792;52.760;6.726;2024-01-11T14:17:02;47.55;;;22.20;;
59006;SDS011;44792;52.760;6.726;2024-01-11T14:19:28;43.50;;;19.08;;
59006;SDS011;44792;52.760;6.726;2024-01-11T14:21:54;45.70;;;19.70;;